Koosharem, UT (84744)

3:18 PM MDT on July 23, 2016 (GMT -0600)
APRSWXNET | | Change Station

Elev 7096 ft 38.40 °N, 111.66 °W | Updated 44 minutes ago

Clear
Clear
88 °F
Feels Like 84 °F
N
16
Wind Variable Wind from WNW
Gusts 22.0 mph

Today
High -- | Low -- °F
--% Chance of Precip.
Yesterday
High -- | Low -- °F
Precip. -- in
Pressure 29.91 in
Visibility 10.0 miles
Clouds Clear
Heat Index 84 °F
Dew Point 35 °F
Humidity 15%
Rainfall in
Snow Depth Not available.
6:22 AM 8:45 PM
Waning Gibbous, 82% visible
METAR KBCE 232053Z AUTO 22009G18KT 10SM CLR 31/M02 A3031 RMK AO2 SLP126 T03111017 56014
Pressure 29.91 in
Visibility 10.0 miles
Clouds Clear
Heat Index 84 °F
Dew Point 35 °F
Humidity 15%
Rainfall in
Snow Depth Not available.
6:22 AM 8:45 PM
Waning Gibbous, 82% visible
METAR KBCE 232053Z AUTO 22009G18KT 10SM CLR 31/M02 A3031 RMK AO2 SLP126 T03111017 56014

10-Day Weather Forecast

Almanac

Astronomy

Jul. 23, 2016 Rise Set
Actual Time
Civil Twilight
Nautical Twilight
Astronomical Twilight
Moon
Length of Visible Light
Length of Day
Tomorrow will be .
, % of the Moon is Illuminated

Today's Extremes

State Highs State Lows

Community

WunderPhotos

Upload Photos

1,926,927 photos uploaded!

WunderBlog® & News

Nearby

Air Quality

  Air Quality AQ Index Pollutant
Not available.

Snow Depth

Station Depth Elevation

Earthquake Activity

City Distance Mag. Time & Date
Minimum magnitude displayed is 2.5.

Coastal Water Temperatures

Place Temperature

Stations

Nearby Weather Stations

Station Location Temp. Windchill Dew Point Humidity Wind Precip. Elev Updated Type
                   

Watches & Warnings

There are currently no watches in effect.